Portageville, Missouri
Current Conditions -  °F | °C
As of 6:55 PM on Saturday 22 Nov 2014 (Local Time) from KDYR Reporting Station
Broken Clouds Broken Clouds  
Wind Chill: 57°   Ceiling: 11000
Heat Index: 57°   Visibility: 10mi
Dew Point: 32°   Wind: 6mph
Humidity: 38%   Direction: 130°SE
Pressure: 30.06"   Gusts: NA
Location:  36.43°N, 89.7°W
Report Text: KDYR 230055Z 13005KT 10SM BKN110 14/00 A3006 RMK AO1
Loading
Personal Weather Stations






























Interactive Weather Map New forecast layout! Learn more

10-Day Weather Forecast

Advertisements
Track Severe Weather on mobile